createdAt,value
2022-08-09T00:00:47.383Z,16.53
2022-08-09T00:01:54.670Z,16.51
2022-08-09T00:02:49.913Z,16.53
2022-08-09T00:04:05.534Z,16.53
2022-08-09T00:05:00.756Z,16.50
2022-08-09T00:06:19.038Z,16.50
2022-08-09T00:06:47.577Z,16.51
2022-08-09T00:07:46.303Z,16.49
2022-08-09T00:08:46.288Z,16.50
2022-08-09T00:09:46.271Z,16.49
2022-08-09T00:10:46.255Z,16.47
2022-08-09T00:12:02.875Z,16.46
2022-08-09T00:12:47.252Z,16.46
2022-08-09T00:13:47.243Z,16.43
2022-08-09T00:14:47.447Z,16.42
2022-08-09T00:15:59.339Z,16.42
2022-08-09T00:16:47.211Z,16.41
2022-08-09T00:18:11.651Z,16.39
2022-08-09T00:18:47.180Z,16.38
2022-08-09T00:19:48.032Z,16.36
2022-08-09T00:20:49.813Z,16.38
2022-08-09T00:21:56.274Z,16.36
2022-08-09T00:22:47.423Z,16.35
2022-08-09T00:23:54.792Z,16.33
2022-08-09T00:24:47.095Z,16.33
2022-08-09T00:25:46.095Z,16.32
2022-08-09T00:26:47.076Z,16.32
2022-08-09T00:27:47.939Z,16.32
2022-08-09T00:28:52.194Z,16.31
2022-08-09T00:30:16.815Z,16.31
2022-08-09T00:30:47.040Z,16.31
2022-08-09T00:31:58.634Z,16.29
2022-08-09T00:32:47.089Z,16.29
2022-08-09T00:33:51.011Z,16.26
2022-08-09T00:34:52.292Z,16.26
2022-08-09T00:35:46.987Z,16.24
2022-08-09T00:36:45.956Z,16.23
2022-08-09T00:37:45.993Z,16.23
2022-08-09T00:38:45.963Z,16.24
2022-08-09T00:40:12.230Z,16.23
2022-08-09T00:40:53.242Z,16.24
2022-08-09T00:44:13.074Z,16.23
2022-08-09T00:44:14.658Z,16.21
2022-08-09T00:44:17.020Z,16.21
2022-08-09T00:44:47.252Z,16.23
2022-08-09T00:45:50.584Z,16.21
2022-08-09T00:46:56.401Z,16.20
2022-08-09T00:47:46.856Z,16.20
2022-08-09T00:48:49.398Z,16.21
2022-08-09T00:49:55.129Z,16.21
2022-08-09T00:50:46.808Z,16.21
2022-08-09T00:51:56.141Z,16.21
2022-08-09T00:52:46.788Z,16.17
2022-08-09T00:53:46.439Z,16.16
2022-08-09T00:54:45.774Z,16.16
2022-08-09T00:56:04.926Z,16.13
2022-08-09T00:56:46.737Z,16.15
2022-08-09T00:57:49.696Z,16.12
2022-08-09T00:58:48.913Z,16.12
2022-08-09T00:59:46.702Z,16.09
2022-08-09T01:00:45.744Z,16.08
2022-08-09T01:01:45.741Z,16.08
2022-08-09T01:02:45.720Z,16.09
2022-08-09T01:03:46.495Z,16.05
2022-08-09T01:04:45.681Z,16.05
2022-08-09T01:05:53.637Z,16.04
2022-08-09T01:06:54.347Z,16.04
2022-08-09T01:08:00.342Z,16.02
2022-08-09T01:08:49.659Z,16.02
2022-08-09T01:09:46.923Z,16.02
2022-08-09T01:10:45.600Z,16.01
2022-08-09T01:11:55.752Z,16.01
2022-08-09T01:12:46.792Z,16.01
2022-08-09T01:13:58.934Z,16.01
2022-08-09T01:14:46.560Z,16.00
2022-08-09T01:15:52.034Z,15.97
2022-08-09T01:16:47.269Z,16.00
2022-08-09T01:17:45.631Z,15.97
2022-08-09T01:18:47.399Z,15.94
2022-08-09T01:19:57.274Z,15.95
2022-08-09T01:20:47.224Z,15.94
2022-08-09T01:21:51.261Z,15.94
2022-08-09T01:22:46.460Z,15.94
2022-08-09T01:24:01.227Z,15.95
2022-08-09T01:24:50.485Z,15.95
2022-08-09T01:25:48.925Z,15.97
2022-08-09T01:26:46.305Z,15.95
2022-08-09T01:27:46.413Z,15.97
2022-08-09T01:28:45.467Z,15.97
2022-08-09T01:29:56.445Z,15.95
2022-08-09T01:30:51.777Z,15.94
2022-08-09T01:32:29.899Z,15.94
2022-08-09T01:32:46.432Z,15.95
2022-08-09T01:33:45.345Z,15.94
2022-08-09T01:34:45.345Z,15.92
2022-08-09T01:35:45.338Z,15.90
2022-08-09T01:36:45.304Z,15.88
2022-08-09T01:38:09.460Z,15.88
2022-08-09T01:38:46.655Z,15.88
2022-08-09T01:39:45.342Z,15.86
2022-08-09T01:40:45.261Z,15.84
2022-08-09T01:41:53.686Z,15.84
2022-08-09T01:42:46.237Z,15.82
2022-08-09T01:43:51.729Z,15.82
2022-08-09T01:44:46.245Z,15.80
2022-08-09T01:45:47.686Z,15.77
2022-08-09T01:46:47.035Z,15.77
2022-08-09T01:47:45.196Z,15.79
2022-08-09T01:48:45.168Z,15.76
2022-08-09T01:49:50.779Z,15.75
2022-08-09T01:50:48.212Z,15.73
2022-08-09T01:51:53.343Z,15.72
2022-08-09T01:52:46.129Z,15.72
2022-08-09T01:53:45.124Z,15.72
2022-08-09T01:54:45.109Z,15.68
2022-08-09T01:55:45.129Z,15.67
2022-08-09T01:56:47.134Z,15.65
2022-08-09T01:57:46.224Z,15.65
2022-08-09T01:58:46.056Z,15.65
2022-08-09T01:59:51.807Z,15.62
2022-08-09T02:00:50.446Z,15.62
2022-08-09T02:01:59.013Z,15.61
2022-08-09T02:02:46.017Z,15.58
2022-08-09T02:03:45.017Z,15.58
2022-08-09T02:04:45.597Z,15.55
2022-08-09T02:06:03.304Z,15.54
2022-08-09T02:06:58.356Z,15.54
2022-08-09T02:08:35.451Z,15.54
2022-08-09T02:08:59.150Z,15.52
2022-08-09T02:09:46.083Z,15.51
2022-08-09T02:10:51.218Z,15.49
2022-08-09T02:11:46.068Z,15.49
2022-08-09T02:12:44.912Z,15.46
2022-08-09T02:14:07.322Z,15.47
2022-08-09T02:14:46.090Z,15.44
2022-08-09T02:15:49.516Z,15.43
2022-08-09T02:16:59.055Z,15.44
2022-08-09T02:18:00.837Z,15.43
2022-08-09T02:18:47.895Z,15.43
2022-08-09T02:19:45.055Z,15.44
2022-08-09T02:20:44.820Z,15.43
2022-08-09T02:21:44.828Z,15.42
2022-08-09T02:22:45.570Z,15.42
2022-08-09T02:23:44.793Z,15.40
2022-08-09T02:24:51.632Z,15.43
2022-08-09T02:25:52.544Z,15.40
2022-08-09T02:26:45.753Z,15.42
2022-08-09T02:28:00.424Z,15.42
2022-08-09T02:28:45.737Z,15.40
2022-08-09T02:29:44.721Z,15.40
2022-08-09T02:30:44.721Z,15.37
2022-08-09T02:31:44.713Z,15.37
2022-08-09T02:32:44.730Z,15.37
2022-08-09T02:33:58.312Z,15.36
2022-08-09T02:34:51.748Z,15.37
2022-08-09T02:36:03.896Z,15.36
2022-08-09T02:36:45.646Z,15.36
2022-08-09T02:37:45.428Z,15.36
2022-08-09T02:38:47.613Z,15.36
2022-08-09T02:39:45.400Z,15.36
2022-08-09T02:40:45.645Z,15.36
2022-08-09T02:41:44.845Z,15.37
2022-08-09T02:42:44.882Z,15.37
2022-08-09T02:43:55.010Z,15.36
2022-08-09T02:44:45.555Z,15.36
2022-08-09T02:45:44.695Z,15.36
2022-08-09T02:46:44.591Z,15.35
2022-08-09T02:47:57.654Z,15.35
2022-08-09T02:48:46.197Z,15.31
2022-08-09T02:49:44.786Z,15.31
2022-08-09T02:50:44.618Z,15.29
2022-08-09T02:51:44.638Z,15.29
2022-08-09T02:52:44.625Z,15.27
2022-08-09T02:53:53.037Z,15.25
2022-08-09T02:54:54.578Z,15.24
2022-08-09T02:55:57.649Z,15.24
2022-08-09T02:56:51.048Z,15.21
2022-08-09T02:58:00.719Z,15.21
2022-08-09T02:58:45.685Z,15.18
2022-08-09T03:00:25.421Z,15.17
2022-08-09T03:00:57.683Z,15.17
2022-08-09T03:02:06.499Z,15.14
2022-08-09T03:02:58.360Z,15.11
2022-08-09T03:04:18.051Z,15.10
2022-08-09T03:04:45.447Z,15.11
2022-08-09T03:05:44.317Z,15.11
2022-08-09T03:06:44.310Z,15.10
2022-08-09T03:07:44.307Z,15.09
2022-08-09T03:08:45.499Z,15.10
2022-08-09T03:09:54.467Z,15.07
2022-08-09T03:10:45.503Z,15.07
2022-08-09T03:12:05.792Z,15.07
2022-08-09T03:12:49.297Z,15.07
2022-08-09T03:13:59.267Z,15.06
2022-08-09T03:14:45.712Z,15.06
2022-08-09T03:16:06.464Z,15.04
2022-08-09T03:16:48.290Z,15.04
2022-08-09T03:17:44.198Z,15.04
2022-08-09T03:18:44.182Z,15.04
2022-08-09T03:19:59.653Z,15.03
2022-08-09T03:20:45.182Z,15.04
2022-08-09T03:21:50.951Z,15.03
2022-08-09T03:22:45.278Z,15.03
2022-08-09T03:23:45.130Z,15.03
2022-08-09T03:24:51.789Z,15.04
2022-08-09T03:25:58.930Z,15.03
2022-08-09T03:26:45.300Z,15.03
2022-08-09T03:27:45.157Z,15.03
2022-08-09T03:28:44.090Z,15.02
2022-08-09T03:29:57.579Z,15.02
2022-08-09T03:30:45.050Z,15.03
2022-08-09T03:32:00.291Z,15.03
2022-08-09T03:32:45.694Z,15.00
2022-08-09T03:33:53.247Z,15.00
2022-08-09T03:34:45.035Z,15.00
2022-08-09T03:36:14.056Z,14.99
2022-08-09T03:36:48.077Z,14.99
2022-08-09T03:37:56.442Z,14.99
2022-08-09T03:38:45.009Z,15.00
2022-08-09T03:39:48.601Z,15.02
2022-08-09T03:40:44.992Z,15.00
2022-08-09T03:41:48.427Z,15.02
2022-08-09T03:42:51.024Z,15.02
2022-08-09T03:44:02.783Z,15.00
2022-08-09T03:44:44.915Z,14.99
2022-08-09T03:46:04.983Z,14.97
2022-08-09T03:46:44.907Z,14.97
2022-08-09T03:47:46.415Z,14.96
2022-08-09T03:48:51.723Z,14.94
2022-08-09T03:49:58.774Z,14.94
2022-08-09T03:50:44.891Z,14.92
2022-08-09T03:51:58.128Z,14.92
2022-08-09T03:52:44.829Z,14.91
2022-08-09T03:53:43.884Z,14.91
2022-08-09T03:54:43.873Z,14.92
2022-08-09T03:55:43.831Z,14.92
2022-08-09T03:56:43.768Z,14.91
2022-08-09T03:57:53.465Z,14.88
2022-08-09T03:58:44.830Z,14.88
2022-08-09T03:59:54.932Z,14.88
2022-08-09T04:00:44.759Z,14.86
2022-08-09T04:01:43.762Z,14.85
2022-08-09T04:02:44.830Z,14.85
2022-08-09T04:04:00.555Z,14.86
2022-08-09T04:04:46.364Z,14.85
2022-08-09T04:05:43.660Z,14.86
2022-08-09T04:06:44.028Z,14.85
2022-08-09T04:07:52.886Z,14.85
2022-08-09T04:08:46.619Z,14.85
2022-08-09T04:09:49.962Z,14.85
2022-08-09T04:10:44.608Z,14.86
2022-08-09T04:11:44.609Z,14.86
2022-08-09T04:12:44.583Z,14.86
2022-08-09T04:14:36.626Z,14.86
2022-08-09T04:15:01.598Z,14.86
2022-08-09T04:16:17.912Z,14.88
2022-08-09T04:16:44.541Z,14.88
2022-08-09T04:17:43.630Z,14.89
2022-08-09T04:18:43.517Z,14.88
2022-08-09T04:19:51.511Z,14.86
2022-08-09T04:20:44.591Z,14.88
2022-08-09T04:21:43.469Z,14.88
2022-08-09T04:22:44.305Z,14.88
2022-08-09T04:23:53.854Z,14.86
2022-08-09T04:24:44.452Z,14.85
2022-08-09T04:25:43.420Z,14.85
2022-08-09T04:26:43.440Z,14.88
2022-08-09T04:27:48.886Z,14.86
2022-08-09T04:28:46.918Z,14.86
2022-08-09T04:29:50.171Z,14.86
2022-08-09T04:30:44.911Z,14.86
2022-08-09T04:31:47.164Z,14.89
2022-08-09T04:32:46.721Z,14.88
2022-08-09T04:33:52.689Z,14.86
2022-08-09T04:34:54.116Z,14.88
2022-08-09T04:35:44.321Z,14.88
2022-08-09T04:36:50.223Z,14.88
2022-08-09T04:37:45.669Z,14.88
2022-08-09T04:38:43.293Z,14.86
2022-08-09T04:39:43.335Z,14.86
2022-08-09T04:40:44.380Z,14.88
2022-08-09T04:41:43.975Z,14.88
2022-08-09T04:42:43.254Z,14.88
2022-08-09T04:43:46.661Z,14.89
2022-08-09T04:44:49.143Z,14.89
2022-08-09T04:45:53.455Z,14.92
2022-08-09T04:46:59.840Z,14.92
2022-08-09T04:47:59.154Z,14.92
2022-08-09T04:48:57.522Z,14.94
2022-08-09T04:49:54.492Z,14.97
2022-08-09T04:50:44.166Z,15.00
2022-08-09T04:51:43.143Z,15.03
2022-08-09T04:52:43.139Z,15.03
2022-08-09T04:53:43.115Z,15.02
2022-08-09T04:54:43.126Z,15.04
2022-08-09T04:55:58.200Z,15.06
2022-08-09T04:56:44.101Z,15.07
2022-08-09T04:57:58.542Z,15.06
2022-08-09T04:58:44.066Z,15.07
2022-08-09T04:59:43.054Z,15.07
2022-08-09T05:00:43.132Z,15.07
2022-08-09T05:01:43.046Z,15.07
2022-08-09T05:02:43.026Z,15.07
2022-08-09T05:03:44.173Z,15.07
2022-08-09T05:04:43.006Z,15.09
2022-08-09T05:05:52.278Z,15.07
2022-08-09T05:06:44.171Z,15.07
2022-08-09T05:07:42.961Z,15.09
2022-08-09T05:08:43.981Z,15.10
2022-08-09T05:09:49.800Z,15.10
2022-08-09T05:10:43.947Z,15.10
2022-08-09T05:11:43.544Z,15.10
2022-08-09T05:12:42.918Z,15.10
2022-08-09T05:13:42.897Z,15.11
2022-08-09T05:14:42.878Z,15.14
2022-08-09T05:15:48.376Z,15.14
2022-08-09T05:16:58.847Z,15.15
2022-08-09T05:18:38.257Z,15.17
2022-08-09T05:18:58.065Z,15.17
2022-08-09T05:19:44.531Z,15.18
2022-08-09T05:20:42.817Z,15.19
2022-08-09T05:21:47.045Z,15.19
2022-08-09T05:23:54.357Z,15.21
2022-08-09T05:23:54.880Z,15.21
2022-08-09T05:24:43.801Z,15.22
2022-08-09T05:25:42.759Z,15.22
2022-08-09T05:26:46.301Z,15.22
2022-08-09T05:27:46.449Z,15.25
2022-08-09T05:28:42.750Z,15.25
2022-08-09T05:29:42.719Z,15.27
2022-08-09T05:30:47.957Z,15.28
2022-08-09T05:31:45.909Z,15.29
2022-08-09T05:32:43.717Z,15.31
2022-08-09T05:33:42.766Z,15.36
2022-08-09T05:34:42.864Z,15.37
2022-08-09T05:35:46.871Z,15.39
2022-08-09T05:36:43.651Z,15.40
2022-08-09T05:37:49.988Z,15.40
2022-08-09T05:38:43.650Z,15.43
2022-08-09T05:39:44.378Z,15.46
2022-08-09T05:40:42.607Z,15.49
2022-08-09T05:41:42.602Z,15.51
2022-08-09T05:42:42.589Z,15.54
2022-08-09T05:43:45.118Z,15.57
2022-08-09T05:44:42.561Z,15.57
2022-08-09T05:45:43.475Z,15.57
2022-08-09T05:46:43.530Z,15.58
2022-08-09T05:47:51.576Z,15.59
2022-08-09T05:48:43.524Z,15.61
2022-08-09T05:50:26.003Z,15.62
2022-08-09T05:50:51.236Z,15.65
2022-08-09T05:51:46.415Z,15.67
2022-08-09T05:52:42.469Z,15.70
2022-08-09T05:53:56.514Z,15.70
2022-08-09T05:54:43.457Z,15.73
2022-08-09T05:55:42.422Z,15.76
2022-08-09T05:56:55.087Z,15.77
2022-08-09T05:57:55.937Z,15.82
2022-08-09T05:58:43.431Z,15.82
2022-08-09T05:59:42.496Z,15.84
2022-08-09T06:00:42.383Z,15.86
2022-08-09T06:01:42.936Z,15.88
2022-08-09T06:02:46.706Z,15.88
2022-08-09T06:03:43.893Z,15.90
2022-08-09T06:04:44.556Z,15.90
2022-08-09T06:05:54.756Z,15.92
2022-08-09T06:06:50.024Z,15.94
2022-08-09T06:07:43.295Z,15.95
2022-08-09T06:08:42.360Z,16.00
2022-08-09T06:09:55.139Z,16.02
2022-08-09T06:10:43.266Z,16.05
2022-08-09T06:11:57.814Z,16.08
2022-08-09T06:12:43.242Z,16.10
2022-08-09T06:13:42.295Z,16.12
2022-08-09T06:14:42.226Z,16.13
2022-08-09T06:15:42.323Z,16.15
2022-08-09T06:16:42.222Z,16.15
2022-08-09T06:17:43.180Z,16.17
2022-08-09T06:18:42.186Z,16.20
2022-08-09T06:19:42.174Z,16.24
2022-08-09T06:20:42.163Z,16.26
2022-08-09T06:21:50.294Z,16.28
2022-08-09T06:22:43.146Z,16.29
2022-08-09T06:23:55.467Z,16.33
2022-08-09T06:24:43.116Z,16.33
2022-08-09T06:25:42.103Z,16.35
2022-08-09T06:26:42.114Z,16.36
2022-08-09T06:27:48.203Z,16.41
2022-08-09T06:28:43.399Z,16.43
2022-08-09T06:29:48.011Z,16.49
2022-08-09T06:30:43.296Z,16.51
2022-08-09T06:32:08.468Z,16.53
2022-08-09T06:32:59.024Z,16.54
2022-08-09T06:33:53.071Z,16.60
2022-08-09T06:34:43.007Z,16.60
2022-08-09T06:35:57.386Z,16.65
2022-08-09T06:36:44.065Z,16.66
2022-08-09T06:37:53.387Z,16.69
2022-08-09T06:38:47.306Z,16.72
2022-08-09T06:39:57.514Z,16.74
2022-08-09T06:40:43.134Z,16.76
2022-08-09T06:42:08.530Z,16.79
2022-08-09T06:42:45.093Z,16.83
2022-08-09T06:43:41.907Z,16.86
2022-08-09T06:44:41.907Z,16.89
2022-08-09T06:46:07.814Z,16.93
2022-08-09T06:46:42.866Z,16.94
2022-08-09T06:47:42.084Z,16.97
2022-08-09T06:48:42.835Z,17.01
2022-08-09T06:49:52.333Z,17.02
2022-08-09T06:50:42.840Z,17.04
2022-08-09T06:51:41.819Z,17.06
2022-08-09T06:52:41.831Z,17.11
2022-08-09T06:53:41.788Z,17.12
2022-08-09T06:54:41.808Z,17.16
2022-08-09T06:55:41.791Z,17.19
2022-08-09T06:56:45.592Z,17.22
2022-08-09T06:58:01.030Z,17.26
2022-08-09T07:00:49.218Z,17.29
2022-08-09T07:00:52.913Z,17.34
2022-08-09T07:00:56.314Z,17.31
2022-08-09T07:01:58.083Z,17.41
2022-08-09T07:02:42.762Z,17.45
2022-08-09T07:03:53.180Z,17.48
2022-08-09T07:04:42.672Z,17.51
2022-08-09T07:05:58.237Z,17.52
2022-08-09T07:06:42.652Z,17.57
2022-08-09T07:07:59.511Z,17.59
2022-08-09T07:08:42.644Z,17.60
2022-08-09T07:09:55.984Z,17.64
2022-08-09T07:10:42.604Z,17.67
2022-08-09T07:11:45.630Z,17.72
2022-08-09T07:12:43.001Z,17.76
2022-08-09T07:13:45.258Z,17.82
2022-08-09T07:14:42.563Z,17.86
2022-08-09T07:15:53.944Z,17.87
2022-08-09T07:16:48.076Z,17.90
2022-08-09T07:17:52.833Z,17.95
2022-08-09T07:18:42.536Z,17.97
2022-08-09T07:19:41.500Z,17.98
2022-08-09T07:20:43.596Z,18.00
2022-08-09T07:21:41.473Z,18.07
2022-08-09T07:22:47.444Z,18.08
2022-08-09T07:23:56.534Z,18.11
2022-08-09T07:24:44.458Z,18.16
2022-08-09T07:25:43.423Z,18.20
2022-08-09T07:26:41.436Z,18.26
2022-08-09T07:27:42.654Z,18.31
2022-08-09T07:29:08.199Z,18.33
2022-08-09T07:29:42.849Z,18.35
2022-08-09T07:30:41.384Z,18.37
2022-08-09T07:31:45.052Z,18.40
2022-08-09T07:32:41.358Z,18.43
2022-08-09T07:33:53.157Z,18.45
2022-08-09T07:34:42.374Z,18.50
2022-08-09T07:35:53.365Z,18.53
2022-08-09T07:36:42.316Z,18.56
2022-08-09T07:37:42.860Z,18.60
2022-08-09T07:38:41.292Z,18.63
2022-08-09T07:39:42.335Z,18.70
2022-08-09T07:41:08.265Z,18.75
2022-08-09T07:41:42.298Z,18.77
2022-08-09T07:42:41.257Z,18.80
2022-08-09T07:43:56.040Z,18.86
2022-08-09T07:44:51.563Z,18.90
2022-08-09T07:45:42.229Z,18.98
2022-08-09T07:46:41.197Z,19.00
2022-08-09T07:48:00.737Z,19.07
2022-08-09T07:48:42.168Z,19.09
2022-08-09T07:50:04.501Z,19.14
2022-08-09T07:50:42.176Z,19.22
2022-08-09T07:52:04.980Z,19.33
2022-08-09T07:52:42.912Z,19.44
2022-08-09T07:54:04.143Z,19.49
2022-08-09T07:54:42.131Z,19.54
2022-08-09T07:56:03.540Z,19.59
2022-08-09T07:56:44.897Z,19.63
2022-08-09T07:57:47.353Z,19.69
2022-08-09T07:58:42.061Z,19.73
2022-08-09T07:59:52.052Z,19.82
2022-08-09T08:00:58.801Z,19.88
2022-08-09T08:01:42.089Z,19.96
2022-08-09T08:02:42.585Z,20.03
2022-08-09T08:03:41.021Z,20.10
2022-08-09T08:04:40.993Z,20.18
2022-08-09T08:05:58.082Z,20.22
2022-08-09T08:06:55.559Z,20.25
2022-08-09T08:08:42.722Z,20.29
2022-08-09T08:09:01.360Z,20.32
2022-08-09T08:09:45.229Z,20.37
2022-08-09T08:10:48.769Z,20.39
2022-08-09T08:12:11.045Z,20.47
2022-08-09T08:12:43.271Z,20.52
2022-08-09T08:13:55.865Z,20.63
2022-08-09T08:14:41.881Z,20.72
2022-08-09T08:15:40.874Z,20.80
2022-08-09T08:17:00.961Z,20.88
2022-08-09T08:17:53.349Z,20.96
2022-08-09T08:18:41.852Z,21.07
2022-08-09T08:19:41.154Z,21.14
2022-08-09T08:20:42.885Z,21.22
2022-08-09T08:21:40.825Z,21.35
2022-08-09T08:22:41.845Z,21.42
2022-08-09T08:23:40.888Z,21.54
2022-08-09T08:24:42.234Z,21.67
2022-08-09T08:25:44.570Z,21.77
2022-08-09T08:26:56.200Z,21.83
2022-08-09T08:27:43.083Z,21.93
2022-08-09T08:28:40.740Z,21.98
2022-08-09T08:29:48.659Z,22.04
2022-08-09T08:30:41.706Z,22.14
2022-08-09T08:32:05.726Z,22.23
2022-08-09T08:32:52.470Z,22.39
2022-08-09T08:33:52.838Z,22.44
2022-08-09T08:34:41.666Z,22.50
2022-08-09T08:35:59.181Z,22.57
2022-08-09T08:36:41.657Z,22.65
2022-08-09T08:37:59.473Z,22.80
2022-08-09T08:38:41.620Z,22.91
2022-08-09T08:39:43.542Z,22.99
2022-08-09T08:40:40.597Z,23.17
2022-08-09T08:41:50.544Z,23.27
2022-08-09T08:42:46.979Z,23.32
2022-08-09T08:43:41.572Z,23.36
2022-08-09T08:44:40.541Z,23.36
2022-08-09T08:45:43.293Z,23.32
2022-08-09T08:47:02.276Z,23.46
2022-08-09T08:47:42.899Z,23.54
2022-08-09T08:48:40.510Z,23.51
2022-08-09T08:49:46.737Z,23.44
2022-08-09T08:50:41.510Z,23.40
2022-08-09T08:51:54.450Z,23.37
2022-08-09T08:52:59.622Z,23.34
2022-08-09T08:54:03.963Z,23.43
2022-08-09T08:54:41.442Z,23.55
2022-08-09T08:55:40.446Z,23.68
2022-08-09T08:56:41.262Z,23.74
2022-08-09T08:57:40.423Z,23.83
2022-08-09T08:58:46.385Z,23.92
2022-08-09T08:59:46.799Z,23.96
2022-08-09T09:00:41.366Z,23.98
2022-08-09T09:01:52.375Z,23.88
2022-08-09T09:02:41.604Z,23.81
2022-08-09T09:03:40.436Z,23.81
2022-08-09T09:04:47.894Z,23.95
2022-08-09T09:06:00.348Z,24.13
2022-08-09T09:06:41.307Z,24.20
2022-08-09T09:07:42.737Z,24.30
2022-08-09T09:08:42.670Z,24.39
2022-08-09T09:09:58.043Z,24.51
2022-08-09T09:10:41.266Z,24.63
2022-08-09T09:11:40.266Z,24.65
2022-08-09T09:12:40.246Z,24.76
2022-08-09T09:13:55.383Z,24.77
2022-08-09T09:14:41.218Z,24.65
2022-08-09T09:15:40.368Z,24.65
2022-08-09T09:16:40.200Z,24.69
2022-08-09T09:17:49.363Z,24.78
2022-08-09T09:18:45.804Z,24.84
2022-08-09T09:19:41.999Z,24.93
2022-08-09T09:20:40.153Z,24.89
2022-08-09T09:21:43.465Z,24.99
2022-08-09T09:22:41.130Z,24.98
2022-08-09T09:23:40.135Z,25.04
2022-08-09T09:24:43.296Z,25.01
2022-08-09T09:26:03.711Z,25.04
2022-08-09T09:26:43.653Z,25.07
2022-08-09T09:28:05.013Z,25.13
2022-08-09T09:29:04.260Z,25.23
2022-08-09T09:30:13.934Z,25.44
2022-08-09T09:30:41.743Z,25.58
2022-08-09T09:32:06.528Z,25.72
2022-08-09T09:32:41.014Z,25.68
2022-08-09T09:33:44.530Z,25.72
2022-08-09T09:34:41.025Z,25.77
2022-08-09T09:35:41.407Z,25.75
2022-08-09T09:36:47.004Z,25.77
2022-08-09T09:37:41.021Z,25.80
2022-08-09T09:38:39.963Z,25.83
2022-08-09T09:39:50.362Z,25.81
2022-08-09T09:40:41.018Z,25.77
2022-08-09T09:41:49.216Z,25.75
2022-08-09T09:42:42.856Z,25.83
2022-08-09T09:44:10.220Z,25.99
2022-08-09T09:44:40.892Z,26.09
2022-08-09T09:45:56.833Z,26.23
2022-08-09T09:46:43.575Z,26.40
2022-08-09T09:47:56.724Z,26.51
2022-08-09T09:48:41.109Z,26.52
2022-08-09T09:50:07.075Z,26.55
2022-08-09T09:50:49.280Z,26.62
2022-08-09T09:51:40.840Z,26.56
2022-08-09T09:52:39.814Z,26.55
2022-08-09T09:53:57.542Z,26.45
2022-08-09T09:54:40.794Z,26.45
2022-08-09T09:55:40.907Z,26.44
2022-08-09T09:58:01.238Z,26.59
2022-08-09T09:58:02.227Z,26.78
2022-08-09T09:58:40.739Z,26.97
2022-08-09T09:59:39.730Z,27.07
2022-08-09T10:00:39.727Z,27.00
2022-08-09T10:01:40.771Z,26.99
2022-08-09T10:02:39.707Z,26.95
2022-08-09T10:03:39.917Z,26.96
2022-08-09T10:04:39.814Z,27.03
2022-08-09T10:06:01.089Z,27.07
2022-08-09T10:06:42.594Z,27.18
2022-08-09T10:08:11.047Z,27.21
2022-08-09T10:08:43.276Z,27.20
2022-08-09T10:09:45.477Z,26.96
2022-08-09T10:10:40.602Z,26.85
2022-08-09T10:11:59.662Z,26.73
2022-08-09T10:12:43.628Z,26.68
2022-08-09T10:13:43.325Z,26.68
2022-08-09T10:14:39.582Z,26.66
2022-08-09T10:16:09.310Z,26.70
2022-08-09T10:16:57.101Z,26.71
2022-08-09T10:17:56.306Z,26.75
2022-08-09T10:18:40.528Z,26.71
2022-08-09T10:19:40.540Z,26.74
2022-08-09T10:20:44.572Z,26.75
2022-08-09T10:21:40.517Z,26.88
2022-08-09T10:22:39.559Z,26.96
2022-08-09T10:23:39.720Z,27.10
2022-08-09T10:24:39.467Z,27.21
2022-08-09T10:26:07.217Z,27.33
2022-08-09T10:26:40.455Z,27.39
2022-08-09T10:27:56.292Z,27.25
2022-08-09T10:28:40.888Z,27.11
2022-08-09T10:30:23.522Z,27.11
2022-08-09T10:32:35.790Z,27.35
2022-08-09T10:32:42.934Z,27.39
2022-08-09T10:34:10.522Z,27.36
2022-08-09T10:34:40.533Z,27.29
2022-08-09T10:35:39.347Z,27.30
2022-08-09T10:36:39.326Z,27.37
2022-08-09T10:37:39.328Z,27.47
2022-08-09T10:38:56.403Z,27.58
2022-08-09T10:39:49.455Z,27.67
2022-08-09T10:40:44.609Z,27.64
2022-08-09T10:41:40.280Z,27.71
2022-08-09T10:42:39.279Z,27.85
2022-08-09T10:43:46.708Z,28.04
2022-08-09T10:44:40.239Z,28.14
2022-08-09T10:45:42.396Z,28.27
2022-08-09T10:46:52.572Z,28.45
2022-08-09T10:48:26.268Z,28.57
2022-08-09T10:48:40.220Z,28.59
2022-08-09T10:49:50.034Z,28.60
2022-08-09T10:50:40.179Z,28.51
2022-08-09T10:51:40.688Z,28.37
2022-08-09T10:52:44.490Z,27.87
2022-08-09T10:53:46.775Z,27.60
2022-08-09T10:54:40.151Z,27.44
2022-08-09T10:55:58.390Z,27.30
2022-08-09T10:56:40.135Z,27.11
2022-08-09T10:57:41.759Z,26.74
2022-08-09T10:58:39.244Z,26.74
2022-08-09T10:59:43.148Z,26.80
2022-08-09T11:00:50.983Z,26.97
2022-08-09T11:03:13.339Z,27.39
2022-08-09T11:03:16.372Z,27.12
2022-08-09T11:03:50.196Z,27.47
2022-08-09T11:04:55.502Z,27.58
2022-08-09T11:05:40.099Z,27.54
2022-08-09T11:06:40.017Z,27.52
2022-08-09T11:07:57.915Z,27.49
2022-08-09T11:08:47.057Z,27.48
2022-08-09T11:09:47.916Z,27.51
2022-08-09T11:10:39.967Z,27.48
2022-08-09T11:11:43.527Z,27.29
2022-08-09T11:12:40.064Z,27.05
2022-08-09T11:13:50.632Z,26.96
2022-08-09T11:14:40.007Z,27.05
2022-08-09T11:16:04.427Z,27.17
2022-08-09T11:16:41.117Z,27.21
2022-08-09T11:17:41.868Z,27.15
2022-08-09T11:18:39.206Z,27.03
2022-08-09T11:20:10.173Z,26.96
2022-08-09T11:20:39.879Z,26.97
2022-08-09T11:21:38.859Z,27.15
2022-08-09T11:22:38.959Z,27.36
2022-08-09T11:23:38.839Z,27.47
2022-08-09T11:24:38.827Z,27.48
2022-08-09T11:25:47.178Z,27.48
2022-08-09T11:26:39.801Z,27.37
2022-08-09T11:28:05.380Z,27.12
2022-08-09T11:28:55.785Z,27.00
2022-08-09T11:30:06.189Z,26.83
2022-08-09T11:30:39.771Z,26.77
2022-08-09T11:31:39.753Z,26.71
2022-08-09T11:32:38.731Z,26.83
2022-08-09T11:33:38.727Z,26.77
2022-08-09T11:34:38.716Z,26.71
2022-08-09T11:35:49.311Z,26.71
2022-08-09T11:36:39.703Z,26.81
2022-08-09T11:37:40.947Z,26.99
2022-08-09T11:38:41.462Z,27.26
2022-08-09T11:39:38.834Z,27.40
2022-08-09T11:40:38.660Z,27.58
2022-08-09T11:41:40.353Z,27.63
2022-08-09T11:42:38.627Z,27.68
2022-08-09T11:43:38.700Z,27.80
2022-08-09T11:44:38.644Z,27.83
2022-08-09T11:45:43.015Z,27.82
2022-08-09T11:46:39.595Z,27.75
2022-08-09T11:47:38.588Z,27.82
2022-08-09T11:48:38.568Z,27.93
2022-08-09T11:49:42.876Z,28.02
2022-08-09T11:50:54.842Z,27.77
2022-08-09T11:53:04.403Z,27.58
2022-08-09T11:53:44.058Z,27.51
2022-08-09T11:53:57.662Z,27.52
2022-08-09T11:54:39.499Z,27.68
2022-08-09T11:55:53.392Z,27.65
2022-08-09T11:56:42.517Z,27.49
2022-08-09T11:57:47.416Z,27.11
2022-08-09T11:58:39.482Z,26.99
2022-08-09T11:59:39.476Z,26.83
2022-08-09T12:00:38.440Z,26.81
2022-08-09T12:02:16.156Z,27.00
2022-08-09T12:02:39.881Z,27.21
2022-08-09T12:03:54.877Z,27.49
2022-08-09T12:04:39.423Z,27.82
2022-08-09T12:05:42.220Z,28.01
2022-08-09T12:06:38.372Z,28.14
2022-08-09T12:07:42.232Z,28.35
2022-08-09T12:08:38.352Z,28.30
2022-08-09T12:09:38.372Z,28.23
2022-08-09T12:10:40.268Z,28.27
2022-08-09T12:12:02.711Z,28.04
2022-08-09T12:12:39.440Z,27.92
2022-08-09T12:14:09.887Z,27.93
2022-08-09T12:15:04.360Z,28.10
2022-08-09T12:15:50.310Z,28.33
2022-08-09T12:16:39.977Z,28.45
2022-08-09T12:17:44.420Z,28.42
2022-08-09T12:18:39.268Z,28.45
2022-08-09T12:19:40.091Z,28.47
2022-08-09T12:20:38.240Z,28.54
2022-08-09T12:21:48.818Z,28.67
2022-08-09T12:22:39.208Z,28.85
2022-08-09T12:23:58.068Z,28.97
2022-08-09T12:24:39.205Z,29.05
2022-08-09T12:25:38.437Z,29.14
2022-08-09T12:26:39.170Z,29.32
2022-08-09T12:29:10.638Z,29.35
2022-08-09T12:29:10.893Z,29.39
2022-08-09T12:29:44.739Z,28.98
2022-08-09T12:30:39.488Z,28.94
2022-08-09T12:32:01.984Z,28.82
2022-08-09T12:32:40.756Z,28.81
2022-08-09T12:33:58.736Z,28.82
2022-08-09T12:34:39.842Z,28.81
2022-08-09T12:35:38.080Z,28.64
2022-08-09T12:36:38.061Z,28.63
2022-08-09T12:37:49.654Z,28.62
2022-08-09T12:38:39.054Z,28.59
2022-08-09T12:39:38.118Z,28.47
2022-08-09T12:40:38.052Z,28.41
2022-08-09T12:41:40.165Z,28.35
2022-08-09T12:42:38.001Z,28.42
2022-08-09T12:44:06.291Z,28.52
2022-08-09T12:44:38.964Z,28.70
2022-08-09T12:45:38.778Z,28.88
2022-08-09T12:46:37.968Z,28.88
2022-08-09T12:47:45.109Z,28.88
2022-08-09T12:48:38.944Z,28.94
2022-08-09T12:49:37.907Z,29.02
2022-08-09T12:50:37.986Z,28.93
2022-08-09T12:52:00.333Z,28.86
2022-08-09T12:52:52.556Z,28.81
2022-08-09T12:53:41.270Z,28.79